Time;durP1;ratioP1;P1;durP2;ratioP2;P2;SDS_P1;SDS_P2;PMS_P1;PMS_P2;Temp;Humidity;BMP_temperature;BMP_pressure;BME280_temperature;BME280_humidity;BME280_pressure;Samples;Min_cycle;Max_cycle;Signal;HPM_P1;HPM_P2
2022/08/01 00:00:31;;;;;;;6.70;6.20;;;19.90;99.90;;;;;;5046050;28;20834;-67
2022/08/01 00:02:58;;;;;;;6.37;5.73;;;19.90;99.90;;;;;;5041907;28;20476;-69
2022/08/01 00:05:25;;;;;;;5.90;5.50;;;20.00;99.90;;;;;;5044443;28;20464;-69
2022/08/01 00:07:52;;;;;;;5.60;5.10;;;19.90;99.90;;;;;;5044254;28;20468;-67
2022/08/01 00:10:19;;;;;;;6.33;5.80;;;19.90;99.90;;;;;;5042562;28;20514;-67
2022/08/01 00:12:47;;;;;;;5.90;5.50;;;19.80;99.90;;;;;;5043702;28;20967;-67
2022/08/01 00:15:16;;;;;;;6.77;6.07;;;19.80;99.90;;;;;;5042674;28;21564;-67
2022/08/01 00:17:44;;;;;;;6.60;5.43;;;19.80;99.90;;;;;;5065575;28;20546;-66
2022/08/01 00:20:13;;;;;;;6.50;6.10;;;19.80;99.90;;;;;;5061937;28;20466;-66
2022/08/01 00:22:42;;;;;;;6.40;5.93;;;19.70;99.90;;;;;;5064064;28;20564;-68
2022/08/01 00:25:09;;;;;;;7.63;5.93;;;19.70;99.90;;;;;;5061968;28;21145;-67
2022/08/01 00:27:37;;;;;;;6.20;5.60;;;19.70;99.90;;;;;;5062686;28;20467;-68
2022/08/01 00:30:06;;;;;;;6.53;5.97;;;19.80;99.90;;;;;;5062063;28;20460;-68
2022/08/01 00:32:33;;;;;;;7.63;4.90;;;19.80;99.90;;;;;;5067425;28;20732;-68
2022/08/01 00:35:00;;;;;;;8.80;5.50;;;19.80;99.90;;;;;;5067671;28;20488;-67
2022/08/01 00:37:27;;;;;;;6.10;5.33;;;19.80;99.90;;;;;;5063591;28;20459;-67
2022/08/01 00:40:09;;;;;;;6.10;5.70;;;19.80;99.90;;;;;;5057290;28;20478;-67
2022/08/01 00:42:36;;;;;;;5.90;5.40;;;19.90;99.90;;;;;;5060631;28;20858;-68
2022/08/01 00:45:06;;;;;;;9.50;5.17;;;19.90;99.90;;;;;;5063025;28;20459;-67
2022/08/01 00:47:33;;;;;;;6.93;5.47;;;19.80;99.90;;;;;;5060137;28;20962;-67
2022/08/01 00:50:00;;;;;;;6.47;5.37;;;19.70;99.90;;;;;;5058819;28;20487;-68
2022/08/01 00:52:28;;;;;;;6.10;5.40;;;19.70;99.90;;;;;;5061692;28;20470;-68
2022/08/01 00:54:55;;;;;;;5.93;5.40;;;19.80;99.90;;;;;;5059352;28;20729;-68
2022/08/01 00:57:22;;;;;;;8.50;5.70;;;19.80;99.90;;;;;;5063308;28;20474;-67
2022/08/01 00:59:49;;;;;;;8.00;6.07;;;19.90;99.90;;;;;;5061458;28;20460;-67
2022/08/01 01:02:17;;;;;;;7.13;5.30;;;19.80;99.90;;;;;;5065592;28;20487;-66
2022/08/01 01:04:44;;;;;;;6.00;5.03;;;19.80;99.90;;;;;;5060254;28;20455;-67
2022/08/01 01:07:30;;;;;;;6.93;6.10;;;19.80;99.90;;;;;;5060277;28;20832;-67
2022/08/01 01:10:01;;;;;;;6.93;6.33;;;19.80;99.90;;;;;;5058370;28;20976;-67
2022/08/01 01:12:32;;;;;;;7.30;5.20;;;19.80;99.90;;;;;;5061240;28;20953;-67
2022/08/01 01:15:07;;;;;;;5.90;5.40;;;19.90;99.90;;;;;;5060423;28;21196;-67
2022/08/01 01:17:39;;;;;;;9.90;5.60;;;19.90;99.90;;;;;;5040269;28;20815;-67
2022/08/01 01:20:09;;;;;;;5.73;5.33;;;19.90;99.90;;;;;;5039278;28;20491;-67
2022/08/01 01:22:51;;;;;;;5.77;5.20;;;19.90;99.90;;;;;;5040562;28;20487;-67
2022/08/01 01:25:35;;;;;;;6.23;5.83;;;19.90;99.90;;;;;;5038236;28;20464;-68
2022/08/01 01:28:12;;;;;;;6.20;5.67;;;19.90;99.90;;;;;;5041603;28;20461;-67
2022/08/01 01:30:44;;;;;;;5.77;5.30;;;19.90;99.90;;;;;;5042329;28;20463;-66
2022/08/01 01:33:14;;;;;;;5.50;5.00;;;19.90;99.90;;;;;;5043210;28;20474;-68
2022/08/01 01:35:47;;;;;;;6.07;5.60;;;19.90;99.90;;;;;;5038263;28;21438;-66
2022/08/01 01:38:19;;;;;;;6.40;5.90;;;19.80;99.90;;;;;;5035723;28;20475;-66
2022/08/01 01:40:49;;;;;;;6.30;5.80;;;19.80;99.90;;;;;;5044966;28;20475;-68
2022/08/01 01:43:17;;;;;;;6.97;5.90;;;19.90;99.90;;;;;;5045491;28;20604;-67
2022/08/01 01:45:49;;;;;;;7.73;6.30;;;19.90;99.90;;;;;;5044971;28;21231;-67
2022/08/01 01:48:19;;;;;;;7.23;6.30;;;19.80;99.90;;;;;;5045444;28;20473;-67
2022/08/01 01:50:49;;;;;;;8.37;6.47;;;19.90;99.90;;;;;;5040180;28;20495;-66
2022/08/01 01:53:19;;;;;;;6.57;5.93;;;19.90;99.90;;;;;;5037787;28;20460;-67
2022/08/01 01:55:50;;;;;;;6.60;6.10;;;19.90;99.90;;;;;;5039274;28;20471;-67
2022/08/01 01:58:20;;;;;;;7.83;6.47;;;19.80;99.90;;;;;;5041576;28;20834;-67
2022/08/01 02:00:52;;;;;;;6.73;6.13;;;19.80;99.90;;;;;;5042968;28;20955;-67
2022/08/01 02:03:20;;;;;;;6.87;6.20;;;19.70;99.90;;;;;;5038798;28;20499;-68
2022/08/01 02:05:48;;;;;;;9.97;5.83;;;19.70;99.90;;;;;;5038869;28;20468;-66
2022/08/01 02:08:17;;;;;;;7.87;6.70;;;19.70;99.90;;;;;;5038889;28;20537;-67
2022/08/01 02:11:17;;;;;;;7.03;6.40;;;19.60;99.90;;;;;;5041556;28;20505;-66
2022/08/01 02:13:37;;;;;;;6.60;6.20;;;19.50;99.90;;;;;;5037305;28;20448;-67
2022/08/01 02:16:06;;;;;;;8.10;6.97;;;19.40;99.90;;;;;;5040400;28;20488;-68
2022/08/01 02:18:33;;;;;;;6.67;6.20;;;19.40;99.90;;;;;;5034280;28;20467;-67
2022/08/01 02:21:05;;;;;;;7.93;5.73;;;19.50;99.90;;;;;;5035717;28;21240;-68
2022/08/01 02:23:34;;;;;;;6.53;5.90;;;19.50;99.90;;;;;;5041300;28;20523;-68
2022/08/01 02:26:08;;;;;;;9.33;5.97;;;19.50;99.90;;;;;;5039850;28;20969;-68
2022/08/01 02:28:38;;;;;;;6.33;5.93;;;19.60;99.90;;;;;;5036789;28;20478;-67
2022/08/01 02:31:12;;;;;;;7.40;6.00;;;19.70;99.90;;;;;;5040620;28;20464;-67
2022/08/01 02:33:42;;;;;;;8.77;6.27;;;19.80;99.90;;;;;;5035467;28;20457;-67
2022/08/01 02:36:09;;;;;;;8.83;6.40;;;19.80;99.90;;;;;;5040474;28;20746;-67
2022/08/01 02:38:41;;;;;;;7.50;6.20;;;19.80;99.90;;;;;;5040765;28;20491;-67
2022/08/01 02:41:12;;;;;;;6.80;6.20;;;19.90;99.90;;;;;;5041830;28;20467;-68
2022/08/01 02:43:42;;;;;;;7.57;6.10;;;19.90;99.90;;;;;;5034767;28;20960;-67
2022/08/01 02:46:17;;;;;;;7.03;6.33;;;19.80;99.90;;;;;;5039421;28;20982;-68
2022/08/01 02:48:44;;;;;;;8.13;7.00;;;19.90;99.90;;;;;;5031936;28;20460;-67
2022/08/01 02:51:12;;;;;;;7.27;6.40;;;19.90;99.90;;;;;;5042886;28;20464;-67
2022/08/01 02:53:41;;;;;;;7.13;6.30;;;19.90;99.90;;;;;;5040528;28;20464;-66
2022/08/01 02:56:09;;;;;;;8.10;7.30;;;19.90;99.90;;;;;;5040753;28;20456;-68
2022/08/01 02:58:38;;;;;;;8.53;7.27;;;19.90;99.90;;;;;;5039446;28;20545;-68
2022/08/01 03:01:12;;;;;;;11.17;6.93;;;19.90;99.90;;;;;;5042840;28;20456;-67
2022/08/01 03:03:39;;;;;;;11.70;6.93;;;20.00;99.90;;;;;;5043894;28;20488;-68
2022/08/01 03:06:07;;;;;;;9.20;8.30;;;20.00;99.90;;;;;;5043020;28;21057;-67
2022/08/01 03:08:38;;;;;;;9.77;8.20;;;19.90;99.90;;;;;;5047292;28;20456;-67
2022/08/01 03:11:07;;;;;;;11.87;10.77;;;19.80;99.90;;;;;;5048806;28;20554;-66
2022/08/01 03:13:34;;;;;;;10.80;9.83;;;19.70;99.90;;;;;;5039349;28;20951;-67
2022/08/01 03:16:03;;;;;;;12.37;10.40;;;19.70;99.90;;;;;;5042624;28;20484;-67
2022/08/01 03:18:32;;;;;;;12.23;11.03;;;19.60;99.90;;;;;;5052480;28;20858;-67
2022/08/01 03:21:01;;;;;;;10.50;9.70;;;19.60;99.90;;;;;;5051830;28;20774;-67
2022/08/01 03:23:32;;;;;;;12.77;10.10;;;19.50;99.90;;;;;;5056310;28;20903;-68
2022/08/01 03:26:01;;;;;;;11.00;10.00;;;19.50;99.90;;;;;;5053560;28;20532;-66
2022/08/01 03:28:30;;;;;;;11.23;10.33;;;19.50;99.90;;;;;;5047681;28;20463;-66
2022/08/01 03:30:59;;;;;;;11.53;9.90;;;19.50;99.90;;;;;;5049168;28;20483;-67
2022/08/01 03:33:26;;;;;;;10.83;9.83;;;19.40;99.90;;;;;;5040765;28;20483;-68
2022/08/01 03:35:57;;;;;;;10.20;9.13;;;19.40;99.90;;;;;;5044119;28;20547;-68
2022/08/01 03:38:27;;;;;;;11.80;9.33;;;19.40;99.90;;;;;;5047693;28;20452;-67
2022/08/01 03:40:57;;;;;;;12.20;9.50;;;19.40;99.90;;;;;;5046556;28;20842;-67
2022/08/01 03:43:32;;;;;;;19.30;10.30;;;19.30;99.90;;;;;;5044811;28;20482;-67
2022/08/01 03:46:04;;;;;;;12.10;9.47;;;19.30;99.90;;;;;;5046488;28;20483;-67
2022/08/01 03:48:36;;;;;;;12.50;9.10;;;19.30;99.90;;;;;;5047651;28;20455;-67
2022/08/01 03:51:09;;;;;;;13.70;9.07;;;19.30;99.90;;;;;;5042841;28;20460;-66
2022/08/01 03:53:37;;;;;;;17.33;9.57;;;19.30;99.90;;;;;;5041917;28;20459;-67
2022/08/01 03:56:08;;;;;;;17.00;9.80;;;19.30;99.90;;;;;;5049667;28;20463;-67
2022/08/01 03:58:37;;;;;;;10.53;9.50;;;19.40;99.90;;;;;;5044520;28;20965;-67
2022/08/01 04:01:06;;;;;;;10.07;9.10;;;19.40;99.90;;;;;;5038967;28;20535;-67
2022/08/01 04:03:34;;;;;;;11.17;9.97;;;19.40;99.90;;;;;;5022510;28;20576;-67
2022/08/01 04:06:08;;;;;;;12.43;10.30;;;19.60;99.90;;;;;;5017273;28;21096;-67
2022/08/01 04:08:36;;;;;;;13.53;10.70;;;19.60;99.90;;;;;;5015752;28;20504;-68
2022/08/01 04:11:03;;;;;;;11.23;9.77;;;19.50;99.90;;;;;;5016497;28;20461;-68
2022/08/01 04:13:30;;;;;;;11.20;10.00;;;19.50;99.90;;;;;;5016646;28;20504;-69
2022/08/01 04:15:57;;;;;;;13.43;10.30;;;19.60;99.90;;;;;;5017541;28;20530;-67
2022/08/01 04:18:24;;;;;;;11.37;10.30;;;19.60;99.90;;;;;;5016511;28;20971;-68
2022/08/01 04:20:52;;;;;;;11.77;10.60;;;19.60;99.90;;;;;;5019040;28;20463;-68
2022/08/01 04:23:24;;;;;;;14.23;10.63;;;19.70;99.90;;;;;;5017726;28;20929;-68
2022/08/01 04:25:52;;;;;;;14.77;10.77;;;19.70;99.90;;;;;;5016839;28;20456;-68
2022/08/01 04:28:19;;;;;;;19.47;11.60;;;19.80;99.90;;;;;;5016017;28;20472;-66
2022/08/01 04:30:51;;;;;;;12.63;11.20;;;19.90;99.90;;;;;;5017823;28;20464;-68
2022/08/01 04:33:19;;;;;;;13.20;11.70;;;19.90;99.90;;;;;;5018177;28;20468;-68
2022/08/01 04:35:47;;;;;;;12.63;10.90;;;19.80;99.90;;;;;;5018382;28;20478;-68
2022/08/01 04:38:18;;;;;;;12.60;11.30;;;20.00;99.90;;;;;;5014048;28;21108;-68
2022/08/01 04:40:47;;;;;;;13.43;11.97;;;20.00;99.90;;;;;;5018627;28;20472;-67
2022/08/01 04:43:14;;;;;;;13.63;11.57;;;20.10;99.90;;;;;;5018844;28;22650;-68
2022/08/01 04:45:43;;;;;;;20.73;13.60;;;20.10;99.90;;;;;;5017126;28;20472;-68
2022/08/01 04:48:10;;;;;;;17.57;13.10;;;20.10;99.90;;;;;;5018049;28;20490;-68
2022/08/01 04:50:38;;;;;;;17.80;12.40;;;20.00;99.90;;;;;;5016904;28;20472;-67
2022/08/01 04:53:05;;;;;;;18.60;13.07;;;20.00;99.90;;;;;;5016975;28;20591;-68
2022/08/01 04:55:32;;;;;;;16.23;14.53;;;20.10;99.90;;;;;;5016954;28;20853;-68
2022/08/01 04:58:00;;;;;;;17.33;13.20;;;20.10;99.90;;;;;;5017380;28;20468;-67
2022/08/01 05:00:28;;;;;;;14.33;12.67;;;20.20;99.90;;;;;;5016964;28;20491;-67
2022/08/01 05:02:55;;;;;;;17.70;13.73;;;20.10;99.90;;;;;;5016539;28;20467;-68
2022/08/01 05:05:25;;;;;;;21.53;12.83;;;20.10;99.90;;;;;;5017209;28;20499;-68
2022/08/01 05:07:52;;;;;;;17.73;13.40;;;20.20;99.90;;;;;;5016243;28;20460;-68
2022/08/01 05:10:19;;;;;;;15.60;12.90;;;20.20;99.90;;;;;;5017320;28;20465;-69
2022/08/01 05:12:47;;;;;;;14.37;13.00;;;20.20;99.90;;;;;;5015781;28;20472;-67
2022/08/01 05:15:16;;;;;;;13.20;11.90;;;20.30;99.90;;;;;;5020777;28;20490;-67
2022/08/01 05:17:43;;;;;;;13.50;12.03;;;20.20;99.90;;;;;;5037533;28;20464;-66
2022/08/01 05:20:11;;;;;;;15.27;12.93;;;20.20;99.90;;;;;;5036110;28;20461;-68
2022/08/01 05:22:39;;;;;;;19.90;13.17;;;20.30;99.90;;;;;;5044681;28;20847;-67
2022/08/01 05:25:09;;;;;;;15.93;14.27;;;20.30;99.90;;;;;;5061000;28;20488;-67
2022/08/01 05:27:40;;;;;;;19.83;13.13;;;20.20;99.90;;;;;;5056007;28;21204;-68
2022/08/01 05:30:11;;;;;;;18.17;14.27;;;20.40;99.90;;;;;;5033766;28;20840;-68
2022/08/01 05:32:40;;;;;;;17.27;14.33;;;20.40;99.90;;;;;;5033092;28;20482;-68
2022/08/01 05:35:08;;;;;;;21.60;13.33;;;20.50;99.90;;;;;;5035060;28;20554;-68
2022/08/01 05:37:38;;;;;;;22.53;16.00;;;20.60;99.90;;;;;;5034512;28;20464;-67
2022/08/01 05:40:06;;;;;;;21.33;15.27;;;20.80;99.90;;;;;;5033938;28;20464;-69
2022/08/01 05:42:32;;;;;;;20.23;15.50;;;20.80;99.90;;;;;;5035760;28;20529;-68
2022/08/01 05:44:59;;;;;;;18.00;16.00;;;20.90;99.90;;;;;;5035284;28;20492;-69
2022/08/01 05:47:26;;;;;;;20.30;15.90;;;20.90;99.90;;;;;;5035493;28;21103;-68
2022/08/01 05:49:55;;;;;;;25.80;17.13;;;20.90;99.90;;;;;;5034522;28;20467;-69
2022/08/01 05:52:22;;;;;;;17.87;15.50;;;20.90;99.90;;;;;;5034882;28;20447;-67
2022/08/01 05:54:49;;;;;;;24.50;17.03;;;21.00;99.90;;;;;;5033855;28;20554;-67
2022/08/01 05:57:15;;;;;;;17.97;16.10;;;21.00;99.90;;;;;;5035283;28;20463;-68
2022/08/01 05:59:42;;;;;;;20.00;17.67;;;21.10;99.90;;;;;;5034806;28;20709;-68
2022/08/01 06:02:10;;;;;;;19.43;17.00;;;21.40;99.90;;;;;;5032118;28;20966;-68
2022/08/01 06:04:36;;;;;;;19.13;17.20;;;21.40;99.90;;;;;;5031981;28;20491;-69
2022/08/01 06:07:05;;;;;;;18.97;17.20;;;21.40;99.90;;;;;;5033094;28;20842;-69
2022/08/01 06:09:32;;;;;;;21.33;19.20;;;21.50;99.90;;;;;;5030308;28;20522;-68
2022/08/01 06:11:59;;;;;;;20.27;18.27;;;21.40;99.90;;;;;;5033142;28;20941;-67
2022/08/01 06:14:26;;;;;;;21.27;19.07;;;21.40;99.90;;;;;;5032977;28;20466;-69
2022/08/01 06:16:52;;;;;;;21.50;19.30;;;21.40;99.90;;;;;;5034034;28;20475;-69
2022/08/01 06:19:19;;;;;;;22.03;18.80;;;21.50;99.90;;;;;;5032932;28;20487;-67
2022/08/01 06:21:46;;;;;;;20.83;18.93;;;21.40;99.90;;;;;;5032051;28;20456;-68
2022/08/01 06:24:15;;;;;;;23.57;19.67;;;21.50;99.90;;;;;;5033106;28;20617;-69
2022/08/01 06:26:42;;;;;;;21.83;19.57;;;21.70;99.90;;;;;;5033528;28;20503;-70
2022/08/01 06:29:09;;;;;;;22.70;20.30;;;21.80;99.90;;;;;;5033855;28;20490;-69
2022/08/01 06:31:36;;;;;;;23.70;21.60;;;21.70;99.90;;;;;;5035614;28;20604;-69
2022/08/01 06:34:03;;;;;;;23.70;21.30;;;21.70;99.90;;;;;;5037087;28;20805;-70
2022/08/01 06:36:30;;;;;;;24.87;22.27;;;21.80;99.90;;;;;;5036512;28;20470;-69
2022/08/01 06:38:57;;;;;;;25.50;20.93;;;21.80;99.90;;;;;;5036581;28;20470;-70
2022/08/01 06:41:26;;;;;;;24.37;21.93;;;21.80;99.90;;;;;;5036386;28;20459;-68
2022/08/01 06:43:53;;;;;;;23.47;20.97;;;21.90;99.90;;;;;;5036837;28;20836;-69
2022/08/01 06:46:20;;;;;;;23.23;20.83;;;21.90;99.90;;;;;;5037910;28;21149;-69
2022/08/01 06:48:47;;;;;;;23.87;21.77;;;22.00;99.90;;;;;;5037071;28;20464;-68
2022/08/01 06:51:17;;;;;;;24.67;21.77;;;21.90;99.90;;;;;;5037334;28;21146;-69
2022/08/01 06:53:44;;;;;;;23.90;21.40;;;21.90;99.90;;;;;;5037659;28;21256;-69
2022/08/01 06:56:11;;;;;;;24.70;22.20;;;21.80;99.90;;;;;;5037250;28;21327;-68
2022/08/01 06:58:39;;;;;;;23.73;21.37;;;22.00;99.90;;;;;;5037676;28;20479;-69
2022/08/01 07:01:06;;;;;;;24.03;21.63;;;22.10;99.90;;;;;;5036606;28;20468;-69
2022/08/01 07:03:34;;;;;;;25.03;22.60;;;22.00;99.90;;;;;;5035631;28;20466;-69
2022/08/01 07:06:01;;;;;;;23.87;21.77;;;22.10;99.90;;;;;;5037191;28;20490;-69
2022/08/01 07:08:27;;;;;;;26.50;20.73;;;22.20;99.90;;;;;;5037312;28;20464;-68
2022/08/01 07:10:55;;;;;;;26.70;24.30;;;22.10;99.90;;;;;;5037668;28;20487;-68
2022/08/01 07:13:24;;;;;;;24.70;22.33;;;22.10;99.90;;;;;;5035963;28;20473;-70
2022/08/01 07:15:53;;;;;;;21.77;19.97;;;22.30;99.90;;;;;;5039020;28;22480;-67
2022/08/01 07:18:20;;;;;;;22.20;20.30;;;22.30;99.90;;;;;;5035613;28;20563;-68
2022/08/01 07:20:47;;;;;;;22.43;20.30;;;22.30;99.90;;;;;;5035944;28;20489;-68
2022/08/01 07:23:14;;;;;;;22.20;19.90;;;22.40;99.90;;;;;;5036435;28;20487;-68
2022/08/01 07:25:42;;;;;;;22.07;20.07;;;22.50;99.90;;;;;;5049454;28;20497;-69
2022/08/01 07:28:08;;;;;;;21.17;19.30;;;22.50;99.90;;;;;;5067715;28;20463;-68
2022/08/01 07:30:36;;;;;;;21.80;19.90;;;22.50;99.90;;;;;;5046750;28;20464;-67
2022/08/01 07:33:04;;;;;;;22.33;20.47;;;22.70;99.90;;;;;;5035544;28;20467;-69
2022/08/01 07:35:31;;;;;;;21.77;20.10;;;22.70;99.90;;;;;;5036693;28;21242;-68
2022/08/01 07:37:57;;;;;;;20.67;18.80;;;22.70;99.90;;;;;;5031971;28;20792;-68
2022/08/01 07:40:24;;;;;;;21.03;18.90;;;22.90;99.90;;;;;;5035240;28;20854;-69
2022/08/01 07:42:51;;;;;;;19.80;18.20;;;23.20;99.90;;;;;;5034497;28;20487;-68
2022/08/01 07:45:18;;;;;;;18.40;17.00;;;23.30;99.90;;;;;;5036695;28;21043;-68
2022/08/01 07:47:46;;;;;;;20.17;18.70;;;23.30;99.90;;;;;;5034734;28;22515;-68
2022/08/01 07:50:14;;;;;;;19.57;18.00;;;23.10;99.90;;;;;;5036442;28;20475;-68
2022/08/01 07:52:41;;;;;;;19.17;17.67;;;23.20;99.90;;;;;;5036729;28;20466;-68
2022/08/01 07:55:09;;;;;;;20.27;18.57;;;23.10;99.90;;;;;;5033511;28;20467;-68
2022/08/01 07:57:36;;;;;;;19.27;17.87;;;23.10;99.90;;;;;;5035402;28;20562;-68
2022/08/01 08:00:05;;;;;;;19.77;18.33;;;23.00;99.90;;;;;;5036031;28;20448;-69
2022/08/01 08:02:33;;;;;;;20.97;19.37;;;23.10;99.90;;;;;;5053752;28;20542;-67
2022/08/01 08:05:00;;;;;;;21.67;20.17;;;23.50;99.90;;;;;;5065514;28;20523;-67
2022/08/01 08:07:28;;;;;;;21.13;19.53;;;23.90;99.90;;;;;;5035965;28;20701;-68
2022/08/01 08:09:55;;;;;;;21.67;19.93;;;24.20;99.90;;;;;;5035872;28;20511;-68
2022/08/01 08:12:22;;;;;;;20.60;18.80;;;24.20;99.90;;;;;;5035465;28;20971;-69
2022/08/01 08:14:49;;;;;;;22.20;20.60;;;24.40;99.90;;;;;;5035630;28;20884;-67
2022/08/01 08:17:16;;;;;;;20.83;19.33;;;24.30;99.90;;;;;;5035806;28;21222;-69
2022/08/01 08:19:44;;;;;;;21.53;19.67;;;24.40;99.90;;;;;;5036579;28;21030;-69
2022/08/01 08:22:11;;;;;;;20.23;18.87;;;24.30;99.90;;;;;;5035425;28;21088;-69
2022/08/01 08:24:39;;;;;;;21.23;19.70;;;24.10;99.90;;;;;;5035870;28;20490;-67
2022/08/01 08:27:07;;;;;;;19.20;17.70;;;24.00;99.90;;;;;;5035292;28;20466;-68
2022/08/01 08:29:35;;;;;;;20.03;18.67;;;24.00;99.90;;;;;;5034430;28;20893;-69
2022/08/01 08:32:02;;;;;;;20.70;19.10;;;24.00;99.90;;;;;;5035321;28;21212;-68
2022/08/01 08:34:30;;;;;;;21.60;20.07;;;24.10;99.90;;;;;;5036470;28;20467;-69
2022/08/01 08:36:58;;;;;;;21.27;19.60;;;24.00;99.90;;;;;;5034798;28;20459;-69
2022/08/01 08:39:25;;;;;;;20.40;18.80;;;24.00;99.90;;;;;;5035111;28;20468;-68
2022/08/01 08:41:54;;;;;;;21.23;19.53;;;24.00;99.90;;;;;;5034678;28;20474;-69
2022/08/01 08:44:21;;;;;;;20.37;18.87;;;24.30;99.90;;;;;;5035578;28;20460;-69
2022/08/01 08:46:51;;;;;;;21.43;19.83;;;24.60;99.90;;;;;;5035870;28;21288;-70
2022/08/01 08:49:22;;;;;;;22.10;20.60;;;25.10;99.90;;;;;;5035589;28;20526;-69
2022/08/01 08:51:51;;;;;;;21.73;19.93;;;25.20;99.90;;;;;;5034491;28;21473;-69
2022/08/01 08:54:20;;;;;;;21.73;20.23;;;24.90;99.90;;;;;;5033586;28;20767;-69
2022/08/01 08:56:48;;;;;;;20.87;19.57;;;25.00;99.90;;;;;;5033584;28;21289;-69
2022/08/01 08:59:16;;;;;;;21.10;19.80;;;24.90;99.90;;;;;;5034151;28;20471;-70
2022/08/01 09:01:43;;;;;;;21.90;20.00;;;25.40;99.90;;;;;;5033577;28;20905;-69
2022/08/01 09:04:10;;;;;;;21.07;19.47;;;25.60;99.90;;;;;;5032959;28;21071;-70
2022/08/01 09:06:41;;;;;;;20.87;19.03;;;26.50;99.90;;;;;;5034843;28;20495;-68
2022/08/01 09:09:09;;;;;;;21.63;20.13;;;27.10;99.90;;;;;;5034856;28;20451;-70
2022/08/01 09:11:37;;;;;;;21.80;20.10;;;27.20;99.90;;;;;;5034499;28;20470;-68
2022/08/01 09:14:07;;;;;;;22.67;21.07;;;26.40;99.90;;;;;;5032834;28;20455;-69
2022/08/01 09:16:37;;;;;;;21.53;20.00;;;25.40;99.90;;;;;;5032594;28;20512;-70
2022/08/01 09:19:13;;;;;;;23.20;21.50;;;25.40;99.90;;;;;;5032612;28;20458;-69
2022/08/01 09:21:54;;;;;;;22.87;21.40;;;25.80;99.90;;;;;;5033030;28;20462;-71
2022/08/01 09:24:21;;;;;;;23.57;21.67;;;26.20;99.90;;;;;;5031693;28;20470;-69
2022/08/01 09:26:50;;;;;;;22.93;21.17;;;26.10;99.90;;;;;;5037314;28;20498;-71
2022/08/01 09:29:21;;;;;;;22.87;21.30;;;26.50;99.90;;;;;;5059000;28;20458;-68
2022/08/01 09:31:49;;;;;;;22.37;20.87;;;26.60;99.90;;;;;;5055338;28;20459;-70
2022/08/01 09:34:24;;;;;;;23.83;22.13;;;26.90;99.90;;;;;;5046217;28;20474;-68
2022/08/01 09:36:54;;;;;;;22.87;21.37;;;26.50;99.90;;;;;;5035180;28;20459;-69
2022/08/01 09:39:22;;;;;;;22.73;21.17;;;26.60;99.90;;;;;;5034947;28;20835;-70
2022/08/01 09:41:49;;;;;;;23.77;21.80;;;26.90;99.90;;;;;;5034081;28;20871;-68
2022/08/01 09:44:18;;;;;;;21.87;20.10;;;26.90;99.90;;;;;;5034428;28;20467;-68
2022/08/01 09:46:53;;;;;;;21.97;20.47;;;26.90;99.90;;;;;;5033645;28;20488;-68
2022/08/01 09:49:31;;;;;;;22.43;20.83;;;26.60;99.90;;;;;;5033701;28;20978;-69
2022/08/01 09:51:59;;;;;;;21.97;19.77;;;26.90;99.90;;;;;;5034214;28;21753;-67
2022/08/01 09:54:31;;;;;;;21.93;20.50;;;26.90;99.90;;;;;;5034140;28;22487;-68
2022/08/01 09:57:13;;;;;;;19.57;18.40;;;27.00;99.90;;;;;;5033912;28;21033;-69
2022/08/01 09:59:43;;;;;;;22.40;20.87;;;27.30;99.90;;;;;;5034514;28;21187;-68
2022/08/01 10:02:13;;;;;;;22.50;21.20;;;27.90;99.90;;;;;;5052961;28;20692;-68
2022/08/01 10:04:48;;;;;;;23.13;21.60;;;27.70;99.90;;;;;;5055366;28;21457;-68
2022/08/01 10:07:16;;;;;;;21.70;20.20;;;27.30;99.90;;;;;;5034384;28;21198;-68
2022/08/01 10:09:44;;;;;;;22.07;20.63;;;27.70;99.90;;;;;;5033295;28;20454;-68
2022/08/01 10:12:12;;;;;;;22.90;21.40;;;28.40;99.90;;;;;;5032940;28;20511;-70
2022/08/01 10:14:41;;;;;;;21.37;20.03;;;29.00;99.90;;;;;;5033518;28;21207;-70
2022/08/01 10:17:12;;;;;;;21.20;19.87;;;29.60;99.90;;;;;;5033356;28;20460;-67
2022/08/01 10:19:42;;;;;;;21.60;20.27;;;29.20;99.90;;;;;;5033238;28;20991;-69
2022/08/01 10:22:10;;;;;;;20.80;19.60;;;29.80;99.90;;;;;;5033448;28;21036;-67
2022/08/01 10:24:39;;;;;;;22.57;20.87;;;29.40;99.90;;;;;;5052988;28;20463;-67
2022/08/01 10:27:07;;;;;;;22.27;20.97;;;28.90;99.90;;;;;;5060882;28;20510;-69
2022/08/01 10:29:39;;;;;;;22.90;21.50;;;28.80;99.90;;;;;;5061424;28;20733;-68
2022/08/01 10:32:08;;;;;;;22.20;20.70;;;28.90;99.90;;;;;;5032571;28;20529;-68
2022/08/01 10:34:38;;;;;;;21.17;20.00;;;29.10;99.90;;;;;;5033108;28;21453;-68
2022/08/01 10:37:06;;;;;;;19.40;18.23;;;29.40;99.90;;;;;;5034282;28;20463;-67
2022/08/01 10:39:34;;;;;;;20.43;19.33;;;29.20;99.90;;;;;;5033193;28;20568;-68
2022/08/01 10:42:02;;;;;;;19.90;18.80;;;29.00;99.90;;;;;;5033823;28;20468;-68
2022/08/01 10:44:31;;;;;;;19.13;18.00;;;28.50;99.90;;;;;;5034023;28;20927;-70
2022/08/01 10:47:03;;;;;;;19.37;18.37;;;28.10;99.90;;;;;;5032758;28;20833;-68
2022/08/01 10:49:33;;;;;;;20.20;18.77;;;27.70;99.90;;;;;;5033482;28;20563;-69
2022/08/01 10:52:01;;;;;;;19.93;18.70;;;28.00;99.90;;;;;;5032571;28;20969;-69
2022/08/01 10:54:28;;;;;;;20.43;19.13;;;28.20;99.90;;;;;;5032384;28;20508;-69
2022/08/01 10:57:00;;;;;;;20.70;19.27;;;28.20;99.90;;;;;;5033960;28;20467;-69
2022/08/01 10:59:28;;;;;;;21.00;19.80;;;27.70;99.90;;;;;;5032831;28;20478;-69
2022/08/01 11:01:59;;;;;;;19.03;17.83;;;27.60;99.90;;;;;;5032879;28;20924;-69
2022/08/01 11:04:45;;;;;;;19.00;17.90;;;27.20;99.90;;;;;;5033644;28;20857;-69
2022/08/01 11:07:18;;;;;;;19.20;18.00;;;27.80;99.90;;;;;;5033095;28;21068;-69
2022/08/01 11:09:47;;;;;;;18.47;17.30;;;28.30;99.90;;;;;;5032742;28;20467;-69
2022/08/01 11:12:17;;;;;;;18.93;17.83;;;29.10;99.90;;;;;;5031355;28;20489;-67
2022/08/01 11:15:26;;;;;;;18.03;17.03;;;29.50;99.90;;;;;;5033509;28;20486;-69
2022/08/01 11:17:53;;;;;;;18.23;17.23;;;29.60;99.90;;;;;;5036680;28;20537;-69
2022/08/01 11:20:22;;;;;;;18.97;17.87;;;30.20;99.90;;;;;;5036347;28;21118;-69
2022/08/01 11:23:17;;;;;;;18.37;17.03;;;29.70;99.90;;;;;;5037846;28;20462;-70
2022/08/01 11:26:12;;;;;;;17.80;16.90;;;29.00;99.90;;;;;;5036855;28;20525;-70
2022/08/01 11:28:40;;;;;;;16.97;15.93;;;28.10;99.90;;;;;;5011365;28;20526;-69
2022/08/01 11:31:28;;;;;;;16.73;15.90;;;28.50;99.90;;;;;;5036666;28;20478;-70
2022/08/01 11:33:55;;;;;;;17.50;16.60;;;29.50;99.90;;;;;;5037238;28;20470;-70
2022/08/01 11:36:22;;;;;;;17.17;16.23;;;30.50;99.90;;;;;;5037488;28;20569;-70
2022/08/01 11:39:06;;;;;;;17.70;16.80;;;32.10;98.80;;;;;;5035994;28;20492;-71
2022/08/01 11:41:35;;;;;;;16.60;15.70;;;32.60;94.80;;;;;;5035686;28;20740;-70
2022/08/01 11:44:05;;;;;;;16.00;15.20;;;31.70;92.40;;;;;;5035675;28;20506;-72
2022/08/01 11:46:49;;;;;;;17.20;16.20;;;30.80;93.30;;;;;;5034909;28;20640;-70
2022/08/01 11:49:47;;;;;;;16.80;16.00;;;29.20;93.80;;;;;;5036234;28;21217;-70
2022/08/01 11:52:16;;;;;;;16.77;15.97;;;28.40;95.40;;;;;;5035778;28;20471;-69
2022/08/01 11:54:45;;;;;;;16.93;16.03;;;28.30;97.40;;;;;;5033622;28;20520;-68
2022/08/01 11:57:14;;;;;;;16.40;15.63;;;28.70;97.20;;;;;;5035400;28;20462;-69
2022/08/01 11:59:45;;;;;;;16.67;15.67;;;28.20;96.60;;;;;;5034909;28;20463;-69
2022/08/01 12:02:24;;;;;;;16.30;15.60;;;28.20;97.60;;;;;;5034343;28;20467;-68
2022/08/01 12:04:54;;;;;;;16.10;15.27;;;28.10;98.00;;;;;;5036399;28;20555;-68
2022/08/01 12:07:23;;;;;;;16.20;15.43;;;28.10;97.60;;;;;;5036327;28;21156;-70
2022/08/01 12:10:00;;;;;;;16.17;15.37;;;28.00;98.40;;;;;;5035471;28;20460;-69
2022/08/01 12:12:29;;;;;;;16.20;15.40;;;27.50;97.80;;;;;;5034402;28;20911;-68
2022/08/01 12:14:57;;;;;;;16.17;15.47;;;27.80;98.60;;;;;;5034354;28;20486;-68
2022/08/01 12:17:32;;;;;;;15.83;15.13;;;27.60;98.30;;;;;;5035649;28;20458;-69
2022/08/01 12:19:59;;;;;;;15.83;15.13;;;27.60;98.30;;;;;;5034833;28;20467;-68
2022/08/01 12:22:26;;;;;;;16.20;15.50;;;28.20;97.20;;;;;;5035093;28;22004;-68
2022/08/01 12:24:55;;;;;;;17.10;16.30;;;29.00;95.60;;;;;;5033999;28;20463;-67
2022/08/01 12:27:26;;;;;;;16.93;16.13;;;29.90;93.60;;;;;;5033017;28;20506;-69
2022/08/01 12:29:54;;;;;;;17.10;15.93;;;30.60;92.60;;;;;;5034532;28;21146;-68
2022/08/01 12:32:27;;;;;;;16.53;15.73;;;31.10;92.60;;;;;;5035864;28;20525;-71
2022/08/01 12:34:56;;;;;;;16.77;15.97;;;31.00;90.60;;;;;;5033245;28;20460;-71
2022/08/01 12:37:24;;;;;;;17.23;16.40;;;31.40;88.70;;;;;;5034907;28;20499;-70
2022/08/01 12:39:52;;;;;;;17.00;16.20;;;31.70;87.30;;;;;;5034406;28;20568;-68
2022/08/01 12:42:20;;;;;;;16.97;16.17;;;32.20;86.30;;;;;;5035459;28;20517;-68
2022/08/01 12:44:51;;;;;;;17.43;16.63;;;32.00;87.00;;;;;;5032974;28;20524;-68